Time;durP1;ratioP1;P1;durP2;ratioP2;P2;SDS_P1;SDS_P2;PMS_P1;PMS_P2;Temp;Humidity;BMP_temperature;BMP_pressure;BME280_temperature;BME280_humidity;BME280_pressure;Samples;Min_cycle;Max_cycle;Signal;HPM_P1;HPM_P2
2023/03/11 00:00:47;;;;;;;1.40;1.40;;;;;3.70;94674.00;;;;8398012;28;20188;-72
2023/03/11 00:04:52;;;;;;;1.63;1.53;;;;;3.70;94684.00;;;;8397966;28;20309;-71
2023/03/11 00:08:55;;;;;;;1.80;1.70;;;;;3.70;94674.00;;;;8395697;28;20223;-71
2023/03/11 00:13:00;;;;;;;1.77;1.60;;;;;3.70;94706.00;;;;8397881;28;20200;-71
2023/03/11 00:17:05;;;;;;;1.40;1.40;;;;;3.80;94673.00;;;;8397415;28;20199;-71
2023/03/11 00:21:15;;;;;;;1.40;1.40;;;;;3.70;94716.00;;;;8397906;28;20208;-72
2023/03/11 00:25:19;;;;;;;1.60;1.47;;;;;3.80;94723.00;;;;8397271;28;20644;-72
2023/03/11 00:29:24;;;;;;;1.80;1.70;;;;;3.80;94727.00;;;;8397046;28;20296;-73
2023/03/11 00:33:28;;;;;;;1.60;1.50;;;;;3.80;94733.00;;;;8403318;28;20645;-72
2023/03/11 00:37:31;;;;;;;1.20;1.20;;;;;3.80;94734.00;;;;8403474;28;20567;-72
2023/03/11 00:41:36;;;;;;;1.37;1.37;;;;;3.80;94785.00;;;;8403530;28;20199;-72
2023/03/11 00:45:40;;;;;;;1.50;1.40;;;;;3.80;94748.00;;;;8402748;28;20200;-72
2023/03/11 00:49:43;;;;;;;1.60;1.50;;;;;3.70;94755.00;;;;8403963;28;20249;-72
2023/03/11 00:53:47;;;;;;;1.23;1.20;;;;;3.80;94766.00;;;;8402423;28;20195;-73
2023/03/11 00:57:52;;;;;;;1.20;1.20;;;;;3.80;94791.00;;;;8402183;28;20211;-72
2023/03/11 01:01:56;;;;;;;1.33;1.33;;;;;3.70;94784.00;;;;8402579;28;20271;-72
2023/03/11 01:06:04;;;;;;;1.30;1.30;;;;;3.70;94788.00;;;;8402498;28;20203;-72
2023/03/11 01:10:09;;;;;;;1.43;1.43;;;;;3.70;94826.00;;;;8402952;28;20595;-72
2023/03/11 01:14:16;;;;;;;4.17;1.30;;;;;3.70;94790.00;;;;8401445;28;20271;-72
2023/03/11 01:18:23;;;;;;;1.10;1.10;;;;;3.60;94799.00;;;;8401897;28;20206;-72
2023/03/11 01:22:31;;;;;;;1.40;1.40;;;;;3.60;94800.00;;;;8400326;28;20251;-71
2023/03/11 01:26:38;;;;;;;1.27;1.23;;;;;3.60;94810.00;;;;8402721;28;20177;-72
2023/03/11 01:30:42;;;;;;;1.37;1.37;;;;;3.60;94806.00;;;;8397616;28;20214;-72
2023/03/11 01:34:47;;;;;;;1.20;1.20;;;;;3.60;94817.00;;;;8401613;28;20192;-72
2023/03/11 01:38:52;;;;;;;1.40;1.40;;;;;3.60;94829.00;;;;8383838;28;20272;-72
2023/03/11 01:42:56;;;;;;;1.47;1.40;;;;;3.60;94828.00;;;;8399496;28;20199;-72
2023/03/11 01:47:47;;;;;;;1.37;1.27;;;;;3.50;94839.00;;;;8400691;28;20572;-72
2023/03/11 01:51:58;;;;;;;1.40;1.40;;;;;3.50;94839.00;;;;8400748;28;20231;-71
2023/03/11 01:56:03;;;;;;;1.30;1.30;;;;;3.50;94849.00;;;;8400232;28;20256;-71
2023/03/11 02:00:09;;;;;;;1.13;1.13;;;;;3.50;94850.00;;;;8400571;28;20195;-71
2023/03/11 02:04:13;;;;;;;1.50;1.50;;;;;3.40;94849.00;;;;8400858;28;20291;-71
2023/03/11 02:08:19;;;;;;;1.43;1.43;;;;;3.40;94847.00;;;;8401253;28;20267;-71
2023/03/11 02:12:25;;;;;;;1.40;1.40;;;;;3.40;94862.00;;;;8399428;28;20600;-71
2023/03/11 02:16:31;;;;;;;1.53;1.50;;;;;3.40;94878.00;;;;8400394;28;20207;-71
2023/03/11 02:20:43;;;;;;;1.30;1.30;;;;;3.40;94875.00;;;;8400074;28;20282;-71
2023/03/11 02:24:55;;;;;;;1.40;1.40;;;;;3.40;94867.00;;;;8400227;28;20190;-72
2023/03/11 02:29:03;;;;;;;1.40;1.30;;;;;3.40;94875.00;;;;8400292;28;20298;-71
2023/03/11 02:33:06;;;;;;;1.60;1.60;;;;;3.30;94868.00;;;;8398326;28;20519;-72
2023/03/11 02:37:14;;;;;;;1.60;1.50;;;;;3.30;94868.00;;;;8400008;28;20695;-72
2023/03/11 02:41:17;;;;;;;1.40;1.40;;;;;3.30;94863.00;;;;8400154;28;20618;-72
2023/03/11 02:45:24;;;;;;;1.57;1.57;;;;;3.30;94873.00;;;;8398907;28;20247;-72
2023/03/11 02:49:29;;;;;;;3.73;1.80;;;;;3.20;94865.00;;;;8398011;28;20250;-72
2023/03/11 02:53:39;;;;;;;1.53;1.50;;;;;3.20;94865.00;;;;8397743;28;20634;-72
2023/03/11 02:57:42;;;;;;;1.93;1.70;;;;;3.10;94866.00;;;;8381682;28;20552;-72
2023/03/11 03:01:53;;;;;;;1.60;1.50;;;;;3.10;94868.00;;;;8416644;22;20255;-72
2023/03/11 03:05:56;;;;;;;1.80;1.70;;;;;3.10;94866.00;;;;8409010;28;20674;-72
2023/03/11 03:10:00;;;;;;;1.60;1.60;;;;;3.10;94870.00;;;;8410140;28;20852;-72
2023/03/11 03:14:06;;;;;;;1.97;1.87;;;;;3.10;94873.00;;;;8403480;28;20269;-72
2023/03/11 03:18:13;;;;;;;1.67;1.63;;;;;3.00;94873.00;;;;8418830;28;20664;-74
2023/03/11 03:22:20;;;;;;;2.00;1.80;;;;;3.10;94887.00;;;;8409775;28;20241;-74
2023/03/11 03:26:25;;;;;;;1.90;1.80;;;;;3.00;94882.00;;;;8399397;28;20232;-75
2023/03/11 03:30:29;;;;;;;1.60;1.50;;;;;3.00;94902.00;;;;8408133;28;20242;-73
2023/03/11 03:34:34;;;;;;;1.63;1.60;;;;;2.90;94911.00;;;;8405557;28;20939;-73
2023/03/11 03:38:38;;;;;;;1.60;1.43;;;;;2.90;94922.00;;;;8407408;28;20209;-73
2023/03/11 03:42:41;;;;;;;1.87;1.77;;;;;2.90;94933.00;;;;8434167;28;20261;-73
2023/03/11 03:46:46;;;;;;;1.77;1.67;;;;;2.90;94946.00;;;;8444341;28;20194;-74
2023/03/11 03:50:52;;;;;;;1.50;1.50;;;;;2.90;94945.00;;;;8440569;28;20232;-74
2023/03/11 03:54:58;;;;;;;1.37;1.33;;;;;2.90;94936.00;;;;8440963;28;20259;-74
2023/03/11 03:59:01;;;;;;;1.60;1.50;;;;;2.80;94951.00;;;;8437115;28;20200;-73
2023/03/11 04:03:10;;;;;;;1.70;1.60;;;;;2.90;94955.00;;;;8415973;28;20239;-73
2023/03/11 04:07:15;;;;;;;1.53;1.53;;;;;2.90;94952.00;;;;8422694;28;20208;-73
2023/03/11 04:11:21;;;;;;;1.43;1.43;;;;;2.80;94962.00;;;;8417756;28;20254;-74
2023/03/11 04:15:29;;;;;;;1.60;1.60;;;;;2.70;94982.00;;;;8416205;28;20227;-74
2023/03/11 04:19:32;;;;;;;2.00;1.87;;;;;2.70;94974.00;;;;8411756;28;20699;-75
2023/03/11 04:23:37;;;;;;;2.93;1.60;;;;;2.70;94977.00;;;;8404236;28;20200;-75
2023/03/11 04:27:44;;;;;;;1.50;1.50;;;;;2.70;94989.00;;;;8404978;28;20195;-74
2023/03/11 04:31:48;;;;;;;1.63;1.60;;;;;2.60;94991.00;;;;8416433;28;20246;-74
2023/03/11 04:35:54;;;;;;;1.40;1.40;;;;;2.60;95004.00;;;;8421437;28;20195;-74
2023/03/11 04:39:59;;;;;;;1.93;1.83;;;;;2.50;95000.00;;;;8410328;28;20977;-74
2023/03/11 04:44:07;;;;;;;1.90;1.80;;;;;2.50;95001.00;;;;8402194;28;20275;-75
2023/03/11 04:48:13;;;;;;;1.87;1.77;;;;;2.50;95017.00;;;;8417911;28;20198;-75
2023/03/11 04:52:17;;;;;;;1.63;1.53;;;;;2.50;95023.00;;;;8408404;28;20297;-75
2023/03/11 04:56:24;;;;;;;1.87;1.77;;;;;2.40;95022.00;;;;8413941;28;20212;-73
2023/03/11 05:00:27;;;;;;;1.80;1.70;;;;;2.40;95020.00;;;;8413133;28;20234;-74
2023/03/11 05:04:33;;;;;;;2.13;1.60;;;;;2.40;95037.00;;;;8412795;28;20751;-76
2023/03/11 05:08:36;;;;;;;1.60;1.50;;;;;2.40;95040.00;;;;8411583;28;20288;-74
2023/03/11 05:12:43;;;;;;;3.37;1.57;;;;;2.40;95043.00;;;;8414476;28;20729;-73
2023/03/11 05:16:50;;;;;;;1.60;1.50;;;;;2.40;95065.00;;;;8405258;28;20225;-72
2023/03/11 05:20:53;;;;;;;2.00;1.50;;;;;2.30;95053.00;;;;8410800;28;20197;-78
2023/03/11 05:24:57;;;;;;;1.70;1.60;;;;;2.30;95060.00;;;;8406018;28;20745;-72
2023/03/11 05:29:03;;;;;;;1.50;1.50;;;;;2.30;95071.00;;;;8407375;28;20206;-72
2023/03/11 05:33:07;;;;;;;2.23;1.80;;;;;2.30;95082.00;;;;8406279;28;20767;-74
2023/03/11 05:37:13;;;;;;;1.47;1.47;;;;;2.30;95087.00;;;;8405720;28;20200;-73
2023/03/11 05:41:18;;;;;;;1.80;1.70;;;;;2.20;95091.00;;;;8410435;28;20454;-73
2023/03/11 05:45:25;;;;;;;1.40;1.40;;;;;2.20;95100.00;;;;8407618;28;20205;-78
2023/03/11 05:49:32;;;;;;;1.17;1.17;;;;;2.10;95094.00;;;;8403391;28;21365;-79
2023/03/11 05:53:35;;;;;;;1.43;1.43;;;;;2.00;95089.00;;;;8398735;28;20232;-80
2023/03/11 05:57:39;;;;;;;1.40;1.40;;;;;2.10;95085.00;;;;8403927;28;20211;-79
2023/03/11 06:01:46;;;;;;;2.20;1.40;;;;;2.10;95096.00;;;;8408608;28;20223;-80
2023/03/11 06:05:51;;;;;;;1.77;1.60;;;;;2.10;95096.00;;;;8403680;28;20252;-81
2023/03/11 06:09:54;;;;;;;1.80;1.47;;;;;2.20;95107.00;;;;8406040;28;20645;-80
2023/03/11 06:13:59;;;;;;;3.10;1.60;;;;;2.10;95104.00;;;;8404429;28;20261;-80
2023/03/11 06:18:06;;;;;;;3.23;1.60;;;;;2.10;95101.00;;;;8403658;28;20199;-81
2023/03/11 06:22:19;;;;;;;1.70;1.60;;;;;2.00;95099.00;;;;8404899;28;20254;-79
2023/03/11 06:26:23;;;;;;;1.80;1.60;;;;;2.10;95109.00;;;;8395377;28;20203;-79
2023/03/11 06:30:27;;;;;;;1.60;1.50;;;;;2.30;95122.00;;;;8403657;28;20219;-78
2023/03/11 06:34:31;;;;;;;1.60;1.50;;;;;2.40;95129.00;;;;8407348;28;20205;-81
2023/03/11 06:38:35;;;;;;;1.70;1.60;;;;;2.30;95149.00;;;;8398144;28;20215;-78
2023/03/11 06:42:39;;;;;;;1.80;1.70;;;;;2.40;95151.00;;;;8403803;28;20205;-78
2023/03/11 06:46:45;;;;;;;2.23;1.60;;;;;2.50;95149.00;;;;8410015;28;20606;-79
2023/03/11 06:50:56;;;;;;;2.20;2.00;;;;;2.50;95158.00;;;;8397976;28;20279;-78
2023/03/11 06:54:59;;;;;;;1.80;1.70;;;;;2.60;95169.00;;;;8406718;28;20209;-76
2023/03/11 06:59:06;;;;;;;1.90;1.80;;;;;2.50;95176.00;;;;8401368;28;20195;-79
2023/03/11 07:03:11;;;;;;;1.83;1.70;;;;;2.50;95182.00;;;;8406414;28;20226;-74
2023/03/11 07:07:15;;;;;;;2.00;1.90;;;;;2.50;95180.00;;;;8404454;28;20651;-76
2023/03/11 07:11:25;;;;;;;1.70;1.60;;;;;2.50;95191.00;;;;8397037;28;20945;-74
2023/03/11 07:15:28;;;;;;;1.73;1.63;;;;;2.60;95195.00;;;;8409984;28;20215;-75
2023/03/11 07:19:47;;;;;;;4.40;1.90;;;;;2.70;95202.00;;;;8407935;28;20202;-75
2023/03/11 07:24:02;;;;;;;2.00;1.80;;;;;2.70;95189.00;;;;8402768;28;20649;-77
2023/03/11 07:28:05;;;;;;;2.00;1.90;;;;;2.70;95202.00;;;;8384400;28;20245;-77
2023/03/11 07:32:09;;;;;;;1.80;1.70;;;;;2.80;95207.00;;;;8384375;28;20264;-78
2023/03/11 07:36:17;;;;;;;3.83;1.70;;;;;2.90;95209.00;;;;8399953;28;20250;-79
2023/03/11 07:40:25;;;;;;;3.43;2.10;;;;;3.10;95220.00;;;;8381932;28;20248;-79
2023/03/11 07:44:33;;;;;;;1.80;1.70;;;;;3.30;95234.00;;;;8405750;28;20186;-78
2023/03/11 07:48:37;;;;;;;1.80;1.70;;;;;3.40;95232.00;;;;8400734;28;20293;-78
2023/03/11 07:52:40;;;;;;;4.70;1.67;;;;;3.60;95241.00;;;;8408361;28;20294;-80
2023/03/11 07:56:45;;;;;;;4.40;1.70;;;;;3.70;95250.00;;;;8411057;28;20248;-79
2023/03/11 08:00:48;;;;;;;2.63;1.50;;;;;3.70;95258.00;;;;8414738;28;20202;-78
2023/03/11 08:04:56;;;;;;;2.53;2.33;;;;;3.80;95267.00;;;;8409360;28;20234;-78
2023/03/11 08:09:03;;;;;;;3.00;2.00;;;;;3.90;95272.00;;;;8414781;28;20202;-80
2023/03/11 08:13:08;;;;;;;2.30;2.00;;;;;4.00;95281.00;;;;8410803;28;20845;-80
2023/03/11 08:17:11;;;;;;;4.43;1.80;;;;;4.20;95272.00;;;;8404883;28;20198;-79
2023/03/11 08:21:17;;;;;;;1.70;1.60;;;;;4.40;95267.00;;;;8409970;28;20260;-80
2023/03/11 08:25:20;;;;;;;3.23;1.87;;;;;4.40;95287.00;;;;8414378;28;21166;-79
2023/03/11 08:29:25;;;;;;;5.03;1.57;;;;;4.30;95284.00;;;;8409292;28;20247;-82
2023/03/11 08:33:28;;;;;;;2.30;1.97;;;;;4.10;95288.00;;;;8414691;28;20282;-82
2023/03/11 08:37:35;;;;;;;1.90;1.80;;;;;4.10;95288.00;;;;8407159;28;20191;-82
2023/03/11 08:41:45;;;;;;;2.17;2.00;;;;;4.40;95299.00;;;;8406230;28;20258;-82
2023/03/11 08:45:54;;;;;;;3.33;1.80;;;;;4.90;95308.00;;;;8405446;28;20206;-83
2023/03/11 08:50:03;;;;;;;2.23;1.77;;;;;5.20;95311.00;;;;8412004;28;20292;-82
2023/03/11 08:54:06;;;;;;;1.90;1.80;;;;;5.10;95312.00;;;;8409392;28;20218;-83
2023/03/11 08:58:10;;;;;;;2.00;1.90;;;;;5.00;95324.00;;;;8413849;28;20695;-82
2023/03/11 09:02:15;;;;;;;1.97;1.73;;;;;5.20;95340.00;;;;8417425;28;20226;-81
2023/03/11 09:06:21;;;;;;;2.20;2.07;;;;;5.10;95354.00;;;;8404166;28;20231;-80
2023/03/11 09:10:27;;;;;;;3.50;1.63;;;;;5.00;95354.00;;;;8413271;28;20200;-79
2023/03/11 09:14:31;;;;;;;2.93;2.00;;;;;4.90;95362.00;;;;8416326;28;20363;-79
2023/03/11 09:18:36;;;;;;;2.37;2.17;;;;;4.90;95359.00;;;;8417939;28;20202;-79
2023/03/11 09:22:41;;;;;;;2.53;1.90;;;;;4.70;95363.00;;;;8407743;28;20299;-79
2023/03/11 09:26:49;;;;;;;2.23;1.67;;;;;4.60;95362.00;;;;8414981;28;20203;-79
2023/03/11 09:30:55;;;;;;;3.33;2.00;;;;;4.50;95370.00;;;;8409364;28;20194;-79
2023/03/11 09:35:02;;;;;;;3.67;2.00;;;;;4.50;95379.00;;;;8394613;28;20292;-79
2023/03/11 09:39:05;;;;;;;1.73;1.60;;;;;4.40;95393.00;;;;8405809;28;20209;-78
2023/03/11 09:43:18;;;;;;;1.53;1.43;;;;;3.80;95389.00;;;;8409900;28;20207;-77
2023/03/11 09:47:40;;;;;;;2.73;1.60;;;;;3.40;95391.00;;;;8414225;28;20210;-77
2023/03/11 09:51:50;;;;;;;1.80;1.70;;;;;3.10;95395.00;;;;8408143;28;20261;-77
2023/03/11 09:56:00;;;;;;;2.03;1.93;;;;;3.00;95404.00;;;;8404612;28;20248;-77
2023/03/11 10:00:11;;;;;;;1.60;1.50;;;;;2.90;95401.00;;;;8410130;28;20861;-78
2023/03/11 10:04:19;;;;;;;2.13;2.03;;;;;3.00;95399.00;;;;8417937;28;20227;-76
2023/03/11 10:08:31;;;;;;;1.93;1.80;;;;;3.20;95402.00;;;;8416596;28;20197;-76
2023/03/11 10:12:51;;;;;;;3.83;2.67;;;;;3.70;95398.00;;;;8394461;28;20232;-75
2023/03/11 10:17:02;;;;;;;1.70;1.60;;;;;4.00;95393.00;;;;8415465;28;20201;-77
2023/03/11 10:21:12;;;;;;;2.67;1.60;;;;;4.40;95401.00;;;;8408629;28;20207;-75
2023/03/11 10:25:30;;;;;;;1.77;1.67;;;;;4.60;95414.00;;;;8410079;28;20272;-75
2023/03/11 10:29:45;;;;;;;2.90;2.57;;;;;4.90;95403.00;;;;8413397;28;20636;-75
2023/03/11 10:33:59;;;;;;;18.37;7.63;;;;;5.10;95408.00;;;;8407858;28;20238;-73
2023/03/11 10:38:22;;;;;;;9.47;8.57;;;;;5.40;95406.00;;;;8406232;28;20192;-73
2023/03/11 10:42:30;;;;;;;2.80;2.60;;;;;5.50;95418.00;;;;8404819;28;20205;-75
2023/03/11 10:46:38;;;;;;;5.27;2.67;;;;;5.50;95424.00;;;;8407467;28;20207;-76
2023/03/11 10:50:49;;;;;;;2.10;1.90;;;;;5.90;95427.00;;;;8404436;28;20196;-79
2023/03/11 10:55:03;;;;;;;2.67;1.87;;;;;6.00;95422.00;;;;8412687;28;20223;-79
2023/03/11 10:59:23;;;;;;;2.47;1.60;;;;;6.00;95419.00;;;;8412785;28;20248;-80
2023/03/11 11:03:30;;;;;;;1.90;1.80;;;;;6.10;95417.00;;;;8402988;28;20242;-81
2023/03/11 11:07:39;;;;;;;1.67;1.67;;;;;6.00;95404.00;;;;8406110;28;20255;-79
2023/03/11 11:12:02;;;;;;;1.83;1.73;;;;;6.10;95419.00;;;;8410734;28;20203;-79
2023/03/11 11:16:20;;;;;;;3.60;1.63;;;;;6.70;95415.00;;;;8396917;28;20199;-81
2023/03/11 11:20:25;;;;;;;1.57;1.50;;;;;6.90;95411.00;;;;8410049;28;20270;-77
2023/03/11 11:24:31;;;;;;;1.90;1.80;;;;;6.50;95413.00;;;;8409270;28;20795;-77
2023/03/11 11:28:34;;;;;;;1.90;1.80;;;;;6.20;95409.00;;;;8406754;28;20668;-81
2023/03/11 11:32:41;;;;;;;1.80;1.70;;;;;5.80;95415.00;;;;8408709;28;20238;-79
2023/03/11 11:36:47;;;;;;;1.97;1.73;;;;;5.60;95420.00;;;;8399723;28;20223;-83
2023/03/11 11:40:57;;;;;;;1.70;1.60;;;;;5.40;95421.00;;;;8406979;28;20256;-82
2023/03/11 11:45:05;;;;;;;2.30;1.60;;;;;5.20;95418.00;;;;8406772;28;20805;-78
2023/03/11 11:49:19;;;;;;;3.33;2.40;;;;;5.10;95434.00;;;;8403605;28;20191;-81
2023/03/11 11:53:30;;;;;;;5.20;1.97;;;;;5.00;95436.00;;;;8404601;28;20248;-78
2023/03/11 11:57:35;;;;;;;5.97;1.80;;;;;4.90;95441.00;;;;8402892;28;20201;-79
2023/03/11 12:01:48;;;;;;;4.43;1.60;;;;;5.00;95436.00;;;;8405422;28;20203;-80
2023/03/11 12:05:57;;;;;;;1.70;1.60;;;;;5.10;95440.00;;;;8407490;28;20199;-78
2023/03/11 12:10:16;;;;;;;5.40;1.73;;;;;5.30;95431.00;;;;8405598;28;20333;-80
2023/03/11 12:14:36;;;;;;;7.10;2.03;;;;;5.70;95429.00;;;;8410009;28;20671;-81
2023/03/11 12:18:42;;;;;;;1.97;1.80;;;;;5.50;95428.00;;;;8407029;28;20283;-80
2023/03/11 12:23:23;;;;;;;1.90;1.80;;;;;5.20;95439.00;;;;8403267;28;20207;-79
2023/03/11 12:27:30;;;;;;;2.97;1.87;;;;;4.70;95435.00;;;;8392309;28;20209;-77
2023/03/11 12:31:38;;;;;;;2.00;1.80;;;;;4.50;95435.00;;;;8406627;28;22122;-76
2023/03/11 12:35:49;;;;;;;2.03;1.87;;;;;4.30;95449.00;;;;8411964;28;20247;-75
2023/03/11 12:39:56;;;;;;;2.63;1.97;;;;;4.30;95438.00;;;;8404198;28;20245;-74
2023/03/11 12:44:04;;;;;;;733.43;304.13;;;;;4.50;95429.00;;;;8408565;28;20191;-76
2023/03/11 12:48:42;;;;;;;93.50;33.03;;;;;4.90;95430.00;;;;8416508;28;20228;-74
2023/03/11 12:52:55;;;;;;;3.97;3.03;;;;;5.20;95436.00;;;;8405657;28;20644;-76
2023/03/11 12:57:02;;;;;;;613.83;251.90;;;;;5.10;95436.00;;;;8410125;28;20256;-74
2023/03/11 13:01:25;;;;;;;3.13;2.93;;;;;5.20;95423.00;;;;8407265;28;20196;-74
2023/03/11 13:05:50;;;;;;;285.13;88.63;;;;;5.10;95422.00;;;;8410087;28;20195;-78
2023/03/11 13:10:14;;;;;;;406.80;156.03;;;;;5.10;95420.00;;;;8410424;28;20211;-75
2023/03/11 13:14:34;;;;;;;145.10;91.93;;;;;5.10;95432.00;;;;8407530;28;20682;-76
2023/03/11 13:18:37;;;;;;;15.30;13.53;;;;;5.10;95435.00;;;;8411189;28;20203;-75
2023/03/11 13:22:58;;;;;;;4.07;2.87;;;;;5.00;95432.00;;;;8408985;28;20717;-76
2023/03/11 13:27:07;;;;;;;4.17;3.77;;;;;5.00;95437.00;;;;8409715;28;20204;-76
2023/03/11 13:31:42;;;;;;;3.03;2.77;;;;;5.00;95440.00;;;;8405905;28;20211;-79
2023/03/11 13:36:02;;;;;;;3.77;3.47;;;;;5.10;95439.00;;;;8416280;28;20231;-77
2023/03/11 13:40:27;;;;;;;3.50;3.20;;;;;5.30;95462.00;;;;8406893;28;20215;-78
2023/03/11 13:44:36;;;;;;;2.80;2.60;;;;;5.60;95465.00;;;;8410400;28;20257;-82
2023/03/11 13:48:44;;;;;;;3.63;2.30;;;;;5.60;95458.00;;;;8412916;28;20246;-77
2023/03/11 13:52:53;;;;;;;2.63;1.90;;;;;5.40;95467.00;;;;8405394;28;20323;-77
2023/03/11 13:57:01;;;;;;;3.27;1.90;;;;;5.30;95476.00;;;;8412943;28;20207;-77
2023/03/11 14:01:05;;;;;;;2.10;1.90;;;;;5.10;95479.00;;;;8417791;28;20195;-74
2023/03/11 14:05:17;;;;;;;2.53;1.70;;;;;5.10;95481.00;;;;8408086;28;20747;-76
2023/03/11 14:09:22;;;;;;;3.17;1.80;;;;;5.00;95487.00;;;;8415154;28;20217;-77
2023/03/11 14:13:27;;;;;;;2.53;2.03;;;;;5.00;95485.00;;;;8409100;28;20223;-80
2023/03/11 14:17:33;;;;;;;2.73;1.93;;;;;4.90;95488.00;;;;8406568;28;20207;-79
2023/03/11 14:21:42;;;;;;;2.40;2.20;;;;;4.80;95497.00;;;;8407778;28;20253;-78
2023/03/11 14:25:48;;;;;;;3.43;2.13;;;;;4.70;95509.00;;;;8410303;28;20718;-78
2023/03/11 14:29:52;;;;;;;2.43;2.13;;;;;4.50;95509.00;;;;8415745;28;20268;-82
2023/03/11 14:34:02;;;;;;;3.23;2.23;;;;;4.50;95510.00;;;;8406715;28;20250;-81
2023/03/11 14:38:21;;;;;;;6.30;2.23;;;;;4.60;95524.00;;;;8409674;28;20213;-79
2023/03/11 14:42:28;;;;;;;3.37;2.10;;;;;4.80;95513.00;;;;8402323;28;20657;-78
2023/03/11 14:46:32;;;;;;;3.13;2.20;;;;;5.00;95523.00;;;;8403006;28;20661;-79
2023/03/11 14:50:38;;;;;;;1.90;1.80;;;;;5.10;95529.00;;;;8409349;28;20214;-80
2023/03/11 14:54:43;;;;;;;3.50;2.20;;;;;5.00;95519.00;;;;8385905;28;20264;-75
2023/03/11 14:58:49;;;;;;;2.10;1.90;;;;;5.00;95519.00;;;;8415311;28;20217;-77
2023/03/11 15:03:20;;;;;;;2.73;1.97;;;;;4.80;95522.00;;;;8400842;28;20281;-75
2023/03/11 15:07:23;;;;;;;4.43;2.03;;;;;4.70;95534.00;;;;8410919;28;20200;-79
2023/03/11 15:11:28;;;;;;;3.47;2.20;;;;;4.70;95534.00;;;;8412847;28;20463;-74
2023/03/11 15:15:35;;;;;;;2.33;2.13;;;;;4.60;95527.00;;;;8410043;28;20694;-77
2023/03/11 15:19:41;;;;;;;5.20;2.70;;;;;4.50;95536.00;;;;8402495;28;20210;-74
2023/03/11 15:23:49;;;;;;;2.43;2.23;;;;;4.40;95536.00;;;;8405243;28;20792;-74
2023/03/11 15:27:54;;;;;;;2.97;2.30;;;;;4.40;95554.00;;;;8412525;28;20206;-75
2023/03/11 15:31:58;;;;;;;3.00;2.07;;;;;4.30;95549.00;;;;8402381;28;20192;-75
2023/03/11 15:36:04;;;;;;;4.17;2.63;;;;;4.20;95545.00;;;;8398093;28;20253;-75
2023/03/11 15:40:21;;;;;;;2.97;2.30;;;;;4.20;95550.00;;;;8394186;28;20236;-78
2023/03/11 15:44:35;;;;;;;6.07;3.00;;;;;4.20;95549.00;;;;8398588;28;20203;-76
2023/03/11 15:48:39;;;;;;;9.93;3.47;;;;;4.20;95550.00;;;;8401144;28;20195;-73
2023/03/11 15:52:43;;;;;;;47.60;16.93;;;;;4.20;95556.00;;;;8400770;28;20199;-74
2023/03/11 15:56:46;;;;;;;4.10;2.77;;;;;4.30;95568.00;;;;8416168;28;20238;-76
2023/03/11 16:00:54;;;;;;;5.17;3.27;;;;;4.30;95576.00;;;;8413209;28;20211;-75
2023/03/11 16:05:02;;;;;;;5.67;3.30;;;;;4.20;95574.00;;;;8410832;28;20847;-75
2023/03/11 16:09:07;;;;;;;6.30;3.40;;;;;4.20;95580.00;;;;8397687;28;20232;-76
2023/03/11 16:13:14;;;;;;;7.13;3.13;;;;;4.20;95571.00;;;;8416561;28;20209;-76
2023/03/11 16:17:23;;;;;;;73.43;23.53;;;;;4.20;95572.00;;;;8400643;28;20868;-75
2023/03/11 16:21:33;;;;;;;133.57;34.27;;;;;4.30;95569.00;;;;8413209;28;20204;-75
2023/03/11 16:25:39;;;;;;;10.10;4.77;;;;;4.30;95584.00;;;;8412753;28;20223;-75
2023/03/11 16:29:45;;;;;;;85.33;28.50;;;;;4.20;95585.00;;;;8416121;28;20301;-75
2023/03/11 16:34:03;;;;;;;59.47;17.30;;;;;4.20;95582.00;;;;8401766;28;20537;-76
2023/03/11 16:38:07;;;;;;;5.47;3.13;;;;;4.10;95586.00;;;;8406002;28;20196;-74
2023/03/11 16:42:20;;;;;;;7.07;2.90;;;;;4.00;95598.00;;;;8407234;28;20869;-75
2023/03/11 16:46:27;;;;;;;17.47;6.50;;;;;3.90;95603.00;;;;8411401;28;20296;-75
2023/03/11 16:50:32;;;;;;;4.27;2.73;;;;;3.90;95605.00;;;;8392593;28;20870;-77
2023/03/11 16:54:38;;;;;;;5.93;3.20;;;;;3.80;95610.00;;;;8403041;28;20239;-74
2023/03/11 16:58:41;;;;;;;6.70;3.07;;;;;3.80;95623.00;;;;8391737;28;20203;-74
2023/03/11 17:02:45;;;;;;;3.90;3.07;;;;;3.70;95631.00;;;;8399351;28;20309;-76
2023/03/11 17:06:50;;;;;;;5.33;3.27;;;;;3.60;95623.00;;;;8395076;28;20202;-75
2023/03/11 17:10:56;;;;;;;21.17;7.73;;;;;3.60;95621.00;;;;8415904;28;20271;-75
2023/03/11 17:15:00;;;;;;;5.93;3.77;;;;;3.70;95630.00;;;;8416460;28;20227;-76
2023/03/11 17:19:03;;;;;;;4.50;2.70;;;;;3.60;95627.00;;;;8407123;28;20211;-79
2023/03/11 17:23:08;;;;;;;7.73;3.53;;;;;3.60;95628.00;;;;8420697;28;20210;-75
2023/03/11 17:27:15;;;;;;;10.80;4.67;;;;;3.50;95636.00;;;;8411635;28;20206;-75
2023/03/11 17:31:18;;;;;;;7.00;4.00;;;;;3.50;95648.00;;;;8396762;28;20213;-76
2023/03/11 17:35:24;;;;;;;9.07;3.90;;;;;3.40;95651.00;;;;8403572;28;20808;-75
2023/03/11 17:39:28;;;;;;;9.43;4.60;;;;;3.40;95650.00;;;;8408892;28;20219;-75
2023/03/11 17:43:33;;;;;;;6.70;3.20;;;;;3.40;95667.00;;;;8397067;28;20284;-80
2023/03/11 17:47:38;;;;;;;4.87;3.10;;;;;3.40;95664.00;;;;8402661;28;20213;-76
2023/03/11 17:51:42;;;;;;;17.10;13.63;;;;;3.40;95663.00;;;;8405641;28;20323;-76
2023/03/11 17:55:54;;;;;;;4.73;3.30;;;;;3.40;95675.00;;;;8409343;28;20239;-76
2023/03/11 18:00:04;;;;;;;6.33;3.67;;;;;3.40;95696.00;;;;8412574;28;20204;-76
2023/03/11 18:04:07;;;;;;;8.27;6.67;;;;;3.40;95690.00;;;;8382436;28;20319;-77
2023/03/11 18:08:14;;;;;;;3.67;3.03;;;;;3.40;95695.00;;;;8396499;28;20209;-78
2023/03/11 18:12:18;;;;;;;3.30;2.50;;;;;3.50;95701.00;;;;8400710;28;20199;-78
2023/03/11 18:16:27;;;;;;;4.00;2.30;;;;;3.50;95714.00;;;;8406290;28;20280;-78
2023/03/11 18:20:31;;;;;;;4.53;2.60;;;;;3.50;95719.00;;;;8408962;28;20195;-80
2023/03/11 18:24:34;;;;;;;5.80;3.00;;;;;3.50;95724.00;;;;8409777;28;20193;-78
2023/03/11 18:28:42;;;;;;;3.27;2.60;;;;;3.50;95720.00;;;;8413587;28;20198;-78
2023/03/11 18:32:52;;;;;;;2.70;2.50;;;;;3.50;95727.00;;;;8412496;28;20203;-78
2023/03/11 18:36:55;;;;;;;4.47;2.60;;;;;3.50;95731.00;;;;8407115;28;20238;-78
2023/03/11 18:40:59;;;;;;;5.00;2.87;;;;;3.40;95737.00;;;;8404131;28;20273;-78
2023/03/11 18:45:09;;;;;;;2.87;2.60;;;;;3.40;95736.00;;;;8402000;28;20231;-78
2023/03/11 18:49:13;;;;;;;3.83;2.83;;;;;3.40;95739.00;;;;8413360;28;20198;-76
2023/03/11 18:53:25;;;;;;;3.17;2.77;;;;;3.40;95731.00;;;;8403938;28;20192;-77
2023/03/11 18:57:28;;;;;;;3.47;2.70;;;;;3.30;95734.00;;;;8406929;28;20610;-77
2023/03/11 19:01:33;;;;;;;4.73;2.60;;;;;3.20;95743.00;;;;8404829;28;20541;-77
2023/03/11 19:05:36;;;;;;;4.30;2.70;;;;;3.10;95740.00;;;;8405374;28;20259;-78
2023/03/11 19:09:40;;;;;;;3.00;2.73;;;;;2.90;95740.00;;;;8409863;28;20676;-78
2023/03/11 19:13:49;;;;;;;4.57;2.93;;;;;2.70;95747.00;;;;8405946;28;20252;-78
2023/03/11 19:17:53;;;;;;;7.33;5.30;;;;;2.50;95741.00;;;;8407722;28;20788;-77
2023/03/11 19:22:08;;;;;;;4.47;3.47;;;;;2.30;95756.00;;;;8406834;28;20295;-76
2023/03/11 19:26:11;;;;;;;5.03;3.43;;;;;2.10;95751.00;;;;8400878;28;20714;-77
2023/03/11 19:30:15;;;;;;;6.30;3.37;;;;;1.90;95753.00;;;;8413904;28;20202;-78
2023/03/11 19:34:22;;;;;;;3.03;2.73;;;;;1.80;95762.00;;;;8412007;28;20201;-78
2023/03/11 19:38:26;;;;;;;3.87;3.27;;;;;1.60;95750.00;;;;8398526;28;20297;-77
2023/03/11 19:42:29;;;;;;;4.50;3.50;;;;;1.50;95752.00;;;;8405721;28;20199;-78
2023/03/11 19:46:39;;;;;;;6.73;3.60;;;;;1.40;95750.00;;;;8400087;28;20286;-77
2023/03/11 19:50:44;;;;;;;5.27;3.43;;;;;1.30;95751.00;;;;8400916;28;20213;-80
2023/03/11 19:54:47;;;;;;;4.30;3.57;;;;;1.20;95748.00;;;;8400115;28;20196;-78
2023/03/11 19:58:51;;;;;;;4.97;3.67;;;;;1.10;95755.00;;;;8401520;28;20658;-78
2023/03/11 20:03:04;;;;;;;6.50;3.67;;;;;1.10;95745.00;;;;8410123;28;20869;-78
2023/03/11 20:07:09;;;;;;;6.17;3.90;;;;;1.20;95752.00;;;;8407305;28;20194;-78
2023/03/11 20:11:12;;;;;;;7.77;4.43;;;;;1.20;95761.00;;;;8412202;28;20206;-76
2023/03/11 20:15:15;;;;;;;9.90;4.63;;;;;1.20;95758.00;;;;8410661;28;20226;-75
2023/03/11 20:19:19;;;;;;;6.80;4.07;;;;;1.10;95751.00;;;;8386758;28;20384;-75
2023/03/11 20:23:27;;;;;;;9.57;4.67;;;;;1.10;95763.00;;;;8410042;28;20202;-75
2023/03/11 20:27:30;;;;;;;7.50;4.10;;;;;1.00;95761.00;;;;8409479;28;20549;-76
2023/03/11 20:31:33;;;;;;;5.97;4.90;;;;;0.90;95762.00;;;;8403116;28;20200;-77
2023/03/11 20:35:36;;;;;;;6.33;4.10;;;;;0.80;95756.00;;;;8407034;28;20230;-74
2023/03/11 20:39:41;;;;;;;7.70;4.40;;;;;0.70;95762.00;;;;8406590;28;20854;-76
2023/03/11 20:43:45;;;;;;;6.63;4.03;;;;;0.60;95755.00;;;;8396796;28;20315;-76
2023/03/11 20:47:52;;;;;;;6.73;3.90;;;;;0.60;95759.00;;;;8408450;28;20770;-75
2023/03/11 20:52:00;;;;;;;11.70;5.37;;;;;0.50;95754.00;;;;8407450;28;20228;-76